Tutayev, Russia
Current Conditions -  °F | °C
As of 6:30 PM on Saturday 25 Oct 2014 (Local Time) from UUDL Reporting Station
Clear Clear  
Wind Chill: 14°   Ceiling: Unl
Heat Index: 14°   Visibility: 6mi
Dew Point:   Wind: 2mph
Humidity: 79%   Direction: 150°SSE
Pressure: 30.62"   Gusts: NA
Location:  57.89°N, 39.55°E
Report Text: UUDL 251530Z 15001MPS CAVOK M10/M13 Q1037 NOSIG RMK QFE76923490250
Loading
Personal Weather Stations






























Interactive Weather Map
Tropical Storm Tracking
New forecast layout! Learn more

10-Day Weather Forecast

Advertisements
Track Severe Weather on mobile